createdAt,value
2019-04-30T00:00:18.449Z,78.12
2019-04-30T00:03:11.465Z,77.91
2019-04-30T00:05:41.697Z,78.20
2019-04-30T00:08:15.897Z,78.24
2019-04-30T00:10:46.844Z,78.33
2019-04-30T00:13:20.947Z,78.49
2019-04-30T00:15:52.875Z,78.45
2019-04-30T00:18:25.711Z,78.37
2019-04-30T00:20:57.775Z,78.43
2019-04-30T00:23:30.918Z,78.53
2019-04-30T00:26:06.022Z,78.51
2019-04-30T00:28:39.376Z,78.60
2019-04-30T00:31:09.616Z,78.59
2019-04-30T00:33:41.687Z,78.62
2019-04-30T00:36:14.814Z,78.61
2019-04-30T00:38:47.257Z,78.67
2019-04-30T00:41:19.333Z,78.88
2019-04-30T00:43:51.175Z,78.94
2019-04-30T00:46:24.920Z,78.87
2019-04-30T00:49:08.764Z,78.74
2019-04-30T00:51:30.413Z,78.82
2019-04-30T00:54:02.377Z,78.86
2019-04-30T00:56:35.523Z,78.99
2019-04-30T00:59:10.436Z,78.86
2019-04-30T01:01:43.516Z,78.71
2019-04-30T01:04:19.443Z,78.69
2019-04-30T01:06:51.733Z,78.94
2019-04-30T01:09:25.661Z,78.75
2019-04-30T01:11:57.378Z,78.58
2019-04-30T01:14:31.974Z,78.62
2019-04-30T01:17:03.699Z,78.69
2019-04-30T01:19:36.742Z,78.61
2019-04-30T01:22:09.042Z,78.60
2019-04-30T01:24:41.178Z,78.71
2019-04-30T01:27:13.166Z,78.65
2019-04-30T01:29:45.467Z,78.58
2019-04-30T01:32:20.822Z,78.60
2019-04-30T01:34:53.736Z,78.67
2019-04-30T01:37:29.581Z,78.67
2019-04-30T01:39:58.918Z,78.81
2019-04-30T01:42:32.105Z,78.83
2019-04-30T01:45:04.657Z,78.95
2019-04-30T01:47:36.515Z,79.09
2019-04-30T01:50:09.295Z,79.07
2019-04-30T01:52:53.589Z,79.15
2019-04-30T01:55:36.295Z,79.28
2019-04-30T01:58:29.951Z,79.26
2019-04-30T02:01:01.489Z,79.43
2019-04-30T02:03:33.563Z,79.33
2019-04-30T02:06:05.410Z,79.46
2019-04-30T02:08:37.075Z,79.54
2019-04-30T02:11:09.122Z,79.67
2019-04-30T02:13:41.191Z,79.69
2019-04-30T02:16:13.461Z,79.67
2019-04-30T02:18:45.650Z,79.67
2019-04-30T02:21:19.500Z,79.75
2019-04-30T02:23:51.504Z,79.80
2019-04-30T02:26:23.791Z,79.71
2019-04-30T02:28:55.752Z,79.85
2019-04-30T02:31:30.757Z,79.84
2019-04-30T02:34:05.627Z,79.81
2019-04-30T02:36:49.975Z,79.88
2019-04-30T02:39:21.734Z,80.05
2019-04-30T02:41:54.692Z,80.27
2019-04-30T02:44:29.253Z,80.44
2019-04-30T02:47:01.501Z,80.52
2019-04-30T02:49:33.759Z,80.50
2019-04-30T02:52:09.104Z,80.65
2019-04-30T02:54:43.533Z,80.94
2019-04-30T02:57:15.303Z,80.78
2019-04-30T03:00:09.700Z,80.66
2019-04-30T03:02:40.369Z,80.82
2019-04-30T03:05:14.110Z,80.98
2019-04-30T03:07:45.888Z,81.06
2019-04-30T03:10:19.818Z,80.96
2019-04-30T03:12:51.649Z,81.09
2019-04-30T03:15:23.502Z,81.31
2019-04-30T03:17:57.081Z,81.37
2019-04-30T03:20:47.443Z,81.14
2019-04-30T03:23:20.463Z,80.94
2019-04-30T03:25:52.344Z,80.84
2019-04-30T03:28:24.310Z,80.94
2019-04-30T03:30:57.947Z,80.71
2019-04-30T03:33:32.572Z,80.53
2019-04-30T03:36:03.351Z,80.28
2019-04-30T03:38:35.412Z,80.46
2019-04-30T03:41:09.702Z,80.57
2019-04-30T03:43:41.413Z,80.67
2019-04-30T03:46:13.466Z,80.63
2019-04-30T03:48:45.685Z,80.47
2019-04-30T03:51:19.904Z,80.28
2019-04-30T03:53:51.408Z,79.82
2019-04-30T03:56:24.162Z,79.86
2019-04-30T03:58:55.884Z,79.65
2019-04-30T04:01:29.561Z,79.04
2019-04-30T04:04:10.129Z,79.14
2019-04-30T04:06:46.208Z,79.18
2019-04-30T04:09:39.963Z,78.84
2019-04-30T04:12:24.894Z,78.66
2019-04-30T04:14:57.050Z,78.46
2019-04-30T04:17:31.464Z,78.64
2019-04-30T04:20:02.633Z,78.91
2019-04-30T04:22:34.484Z,78.90
2019-04-30T04:25:12.633Z,78.99
2019-04-30T04:27:40.683Z,78.79
2019-04-30T04:30:12.960Z,78.81
2019-04-30T04:32:44.869Z,78.98
2019-04-30T04:35:19.503Z,78.89
2019-04-30T04:37:50.551Z,78.77
2019-04-30T04:40:22.410Z,78.73
2019-04-30T04:42:54.478Z,78.39
2019-04-30T04:45:26.569Z,78.41
2019-04-30T04:48:00.045Z,78.28
2019-04-30T04:50:31.902Z,78.04
2019-04-30T04:53:04.013Z,77.90
2019-04-30T04:55:36.252Z,77.90
2019-04-30T04:58:09.738Z,77.91
2019-04-30T05:00:41.487Z,77.65
2019-04-30T05:03:14.683Z,77.73
2019-04-30T05:05:46.598Z,77.54
2019-04-30T05:08:18.656Z,77.12
2019-04-30T05:10:50.904Z,77.16
2019-04-30T05:13:22.765Z,77.14
2019-04-30T05:15:54.709Z,77.32
2019-04-30T05:18:26.654Z,77.11
2019-04-30T05:20:59.178Z,76.75
2019-04-30T05:23:31.240Z,76.34
2019-04-30T05:26:04.305Z,76.01
2019-04-30T05:28:36.137Z,76.77
2019-04-30T05:31:08.771Z,76.62
2019-04-30T05:33:40.804Z,76.73
2019-04-30T05:36:12.573Z,76.56
2019-04-30T05:38:44.223Z,76.32
2019-04-30T05:41:16.592Z,76.27
2019-04-30T05:43:48.893Z,76.16
2019-04-30T05:46:20.829Z,75.82
2019-04-30T05:48:52.935Z,75.85
2019-04-30T05:51:25.048Z,75.43
2019-04-30T05:53:59.110Z,75.24
2019-04-30T05:56:31.435Z,75.26
2019-04-30T05:59:03.328Z,75.30
2019-04-30T06:01:35.043Z,75.12
2019-04-30T06:04:06.804Z,74.20
2019-04-30T06:06:38.968Z,74.36
2019-04-30T06:09:28.608Z,74.03
2019-04-30T06:11:53.143Z,74.07
2019-04-30T06:14:28.530Z,73.52
2019-04-30T06:17:09.791Z,73.57
2019-04-30T06:19:41.839Z,73.43
2019-04-30T06:22:13.571Z,73.51
2019-04-30T06:24:45.623Z,73.24
2019-04-30T06:27:19.116Z,73.21
2019-04-30T06:29:50.998Z,73.59
2019-04-30T06:32:23.058Z,73.37
2019-04-30T06:34:55.007Z,73.26
2019-04-30T06:37:28.799Z,73.05
2019-04-30T06:40:00.798Z,72.87
2019-04-30T06:42:32.643Z,72.67
2019-04-30T06:45:09.233Z,72.21
2019-04-30T06:47:40.979Z,71.68
2019-04-30T06:50:13.371Z,71.09
2019-04-30T06:52:56.616Z,70.72
2019-04-30T06:55:19.416Z,69.89
2019-04-30T06:57:51.541Z,69.26
2019-04-30T07:00:32.861Z,68.94
2019-04-30T07:02:59.718Z,68.30
2019-04-30T07:05:31.880Z,67.98
2019-04-30T07:08:22.159Z,67.36
2019-04-30T07:11:11.135Z,67.14
2019-04-30T07:13:41.653Z,66.67
2019-04-30T07:16:13.324Z,66.57
2019-04-30T07:18:45.191Z,66.34
2019-04-30T07:21:19.533Z,66.15
2019-04-30T07:23:50.333Z,65.77
2019-04-30T07:26:24.404Z,65.98
2019-04-30T07:28:55.685Z,66.21
2019-04-30T07:31:29.363Z,65.69
2019-04-30T07:34:00.969Z,65.81
2019-04-30T07:36:45.264Z,64.40
2019-04-30T07:39:10.003Z,63.95
2019-04-30T07:41:41.345Z,63.86
2019-04-30T07:44:30.012Z,63.45
2019-04-30T07:46:49.337Z,63.42
2019-04-30T07:49:21.469Z,63.00
2019-04-30T07:51:55.640Z,63.14
2019-04-30T07:54:29.976Z,63.52
2019-04-30T07:57:00.984Z,62.95
2019-04-30T07:59:32.755Z,62.09
2019-04-30T08:02:13.724Z,61.62
2019-04-30T08:04:45.472Z,61.74
2019-04-30T08:07:17.035Z,60.67
2019-04-30T08:09:49.402Z,60.89
2019-04-30T08:12:29.813Z,61.09
2019-04-30T08:14:54.866Z,60.29
2019-04-30T08:17:28.814Z,58.87
2019-04-30T08:20:00.226Z,58.89
2019-04-30T08:22:32.194Z,58.86
2019-04-30T08:25:04.909Z,58.93
2019-04-30T08:27:36.631Z,58.72
2019-04-30T08:30:21.384Z,58.04
2019-04-30T08:32:43.113Z,57.93
2019-04-30T08:35:14.973Z,57.36
2019-04-30T08:37:46.915Z,56.72
2019-04-30T08:40:19.272Z,56.21
2019-04-30T08:42:52.385Z,55.81
2019-04-30T08:45:24.448Z,56.31
2019-04-30T08:47:56.406Z,55.95
2019-04-30T08:50:29.597Z,55.26
2019-04-30T08:53:01.864Z,54.30
2019-04-30T08:55:34.124Z,53.87
2019-04-30T08:58:09.825Z,53.22
2019-04-30T09:00:40.104Z,54.27
2019-04-30T09:03:12.271Z,53.74
2019-04-30T09:05:45.775Z,53.24
2019-04-30T09:08:19.351Z,52.97
2019-04-30T09:10:52.255Z,52.39
2019-04-30T09:13:24.424Z,52.78
2019-04-30T09:15:56.624Z,52.63
2019-04-30T09:18:29.255Z,52.67
2019-04-30T09:21:06.133Z,52.17
2019-04-30T09:23:45.938Z,52.19
2019-04-30T09:26:08.738Z,52.60
2019-04-30T09:28:41.086Z,52.55
2019-04-30T09:31:12.974Z,52.56
2019-04-30T09:33:45.184Z,52.60
2019-04-30T09:36:20.554Z,52.41
2019-04-30T09:38:50.295Z,52.25
2019-04-30T09:41:22.380Z,52.60
2019-04-30T09:43:54.424Z,51.52
2019-04-30T09:46:29.955Z,51.41
2019-04-30T09:49:02.953Z,50.64
2019-04-30T09:51:36.069Z,51.00
2019-04-30T09:54:11.921Z,50.78
2019-04-30T09:56:42.020Z,50.94
2019-04-30T09:59:13.874Z,51.38
2019-04-30T10:01:46.040Z,52.60
2019-04-30T10:04:20.186Z,53.09
2019-04-30T10:06:51.392Z,53.25
2019-04-30T10:09:23.464Z,52.09
2019-04-30T10:11:57.070Z,52.15
2019-04-30T10:14:28.656Z,51.62
2019-04-30T10:17:02.424Z,51.43
2019-04-30T10:19:34.137Z,50.45
2019-04-30T10:22:08.849Z,51.06
2019-04-30T10:24:40.875Z,51.43
2019-04-30T10:27:13.612Z,50.23
2019-04-30T10:29:45.407Z,49.58
2019-04-30T10:32:18.699Z,49.56
2019-04-30T10:34:50.499Z,49.66
2019-04-30T10:37:22.726Z,49.17
2019-04-30T10:39:54.835Z,48.51
2019-04-30T10:42:28.676Z,48.53
2019-04-30T10:45:00.375Z,49.13
2019-04-30T10:47:32.834Z,49.60
2019-04-30T10:50:07.051Z,50.39
2019-04-30T10:52:39.398Z,50.17
2019-04-30T10:55:11.455Z,50.25
2019-04-30T10:57:43.180Z,51.07
2019-04-30T11:00:16.046Z,50.22
2019-04-30T11:02:49.529Z,50.31
2019-04-30T11:05:21.440Z,49.93
2019-04-30T11:07:53.384Z,49.75
2019-04-30T11:10:25.411Z,50.05
2019-04-30T11:12:57.141Z,50.00
2019-04-30T11:15:29.320Z,50.06
2019-04-30T11:18:01.561Z,50.76
2019-04-30T11:20:33.729Z,50.95
2019-04-30T11:23:14.314Z,51.45
2019-04-30T11:25:41.270Z,51.52
2019-04-30T11:28:13.338Z,51.91
2019-04-30T11:30:46.053Z,51.84
2019-04-30T11:33:18.166Z,52.04
2019-04-30T11:36:01.695Z,52.87
2019-04-30T11:38:23.875Z,52.47
2019-04-30T11:40:56.102Z,52.54
2019-04-30T11:43:29.472Z,52.36
2019-04-30T11:46:25.379Z,52.32
2019-04-30T11:48:58.725Z,52.06
2019-04-30T11:51:30.395Z,51.74
2019-04-30T11:54:02.488Z,52.12
2019-04-30T11:56:34.247Z,52.16
2019-04-30T11:59:06.085Z,51.93
2019-04-30T12:01:38.857Z,51.79
2019-04-30T12:04:10.550Z,51.79
2019-04-30T12:06:42.690Z,51.47
2019-04-30T12:09:20.132Z,51.67
2019-04-30T12:11:52.255Z,51.81
2019-04-30T12:14:24.215Z,51.80
2019-04-30T12:16:56.294Z,52.61
2019-04-30T12:19:28.645Z,52.12
2019-04-30T12:22:00.552Z,52.60
2019-04-30T12:24:32.373Z,52.88
2019-04-30T12:27:04.486Z,52.61
2019-04-30T12:29:36.681Z,53.09
2019-04-30T12:32:08.669Z,52.58
2019-04-30T12:34:40.621Z,52.55
2019-04-30T12:37:12.576Z,53.23
2019-04-30T12:39:44.754Z,53.65
2019-04-30T12:42:18.667Z,53.83
2019-04-30T12:44:51.630Z,53.83
2019-04-30T12:47:23.928Z,54.32
2019-04-30T12:50:09.601Z,54.51
2019-04-30T12:52:45.952Z,53.97
2019-04-30T12:55:19.958Z,54.53
2019-04-30T12:57:58.883Z,54.26
2019-04-30T13:00:29.358Z,53.88
2019-04-30T13:03:01.232Z,54.03
2019-04-30T13:05:33.257Z,53.78
2019-04-30T13:08:05.702Z,53.68
2019-04-30T13:10:38.070Z,53.60
2019-04-30T13:13:10.818Z,53.77
2019-04-30T13:15:42.844Z,54.27
2019-04-30T13:18:14.997Z,54.66
2019-04-30T13:20:48.817Z,54.67
2019-04-30T13:23:20.689Z,54.93
2019-04-30T13:25:52.841Z,54.88
2019-04-30T13:28:26.120Z,54.59
2019-04-30T13:30:59.313Z,54.52
2019-04-30T13:33:42.047Z,54.45
2019-04-30T13:36:14.088Z,54.65
2019-04-30T13:38:52.383Z,55.21
2019-04-30T13:41:31.531Z,55.52
2019-04-30T13:44:04.933Z,55.78
